NCAR-RAP Real-Time Weather Data

Output produced by METARs form (17 September 2019  16:15 UTC)
found at http://weather.rap.ucar.edu/surface/
 
KDAN 171553Z AUTO VRB04KT 10SM BKN085 28/19 A3004 RMK AO2 SLP163 T02780189
KDAN 171453Z AUTO 04007KT 10SM BKN075 BKN100 26/19 A3005 RMK AO2 SLP164 T02560189 51014
KDAN 171353Z AUTO 03008KT 10SM BKN080 24/18 A3004 RMK AO2 SLP161 T02440183
KDAN 171253Z AUTO 02003KT 10SM CLR 23/18 A3002 RMK AO2 SLP153 T02330183
KDAN 171153Z AUTO 00000KT 10SM CLR 19/18 A3000 RMK AO2 SLP150 T01890178 10189 20172 53013
KDAN 171053Z AUTO 00000KT 10SM FEW100 18/17 A2999 RMK AO2 SLP144 T01780167
KDAN 170953Z AUTO 24004KT 10SM FEW100 18/17 A2997 RMK AO2 SLP135 T01780172
KDAN 170853Z AUTO 00000KT 10SM CLR 18/17 A2997 RMK AO2 SLP135 T01780167 56008
KDAN 170753Z AUTO 00000KT 10SM CLR 18/17 A2997 RMK AO2 SLP137 T01780167
KDAN 170653Z AUTO 00000KT 10SM CLR 18/17 A2998 RMK AO2 SLP140 T01830167
KDAN 170553Z AUTO 00000KT 10SM CLR 19/17 A2999 RMK AO2 SLP144 T01890167 10250 20189 56002
KDAN 170453Z AUTO 00000KT 10SM CLR 19/17 A2999 RMK AO2 SLP145 T01940167 403440172
KDAN 170353Z AUTO 00000KT 10SM BKN095 21/17 A3000 RMK AO2 SLP146 T02060167
KDAN 170253Z AUTO 00000KT 10SM SCT100 21/17 A3000 RMK AO2 SLP147 T02110167 53011
KDAN 170053Z AUTO 00000KT 10SM CLR 23/16 A2997 RMK AO2 SLP138 T02280156
KDAN 162353Z AUTO 00000KT 10SM CLR 25/16 A2997 RMK AO2 SLP137 T02500156 10344 20250 53001
KDAN 162253Z AUTO 00000KT 10SM CLR 31/12 A2996 RMK AO2 SLP135 T03110117
KDAN 162153Z AUTO VRB03KT 10SM CLR 33/11 A2996 RMK AO2 SLP135 T03330106
KDAN 162053Z AUTO 09004KT 10SM CLR 34/13 A2996 RMK AO2 SLP134 T03390128 56023
KDAN 161953Z AUTO VRB05KT 10SM CLR 34/12 A2998 RMK AO2 SLP140 T03390122